sim
Sign-in with your pilot id or email,
or register
Callsign
Passwort

Schedule Details

Flight Number: OEF9172
Departure: Boston Logan International Airport (KBOS) at 05:00
Arrival: Munich Airport (EDDM) at 11:40

Weather Information
Getting current METAR information for KBOS 181354Z 02013KT 10SM FEW032 OVC038 15/07 A3001 RMK AO2 SLP163 T01500072
Getting current METAR information for EDDM 181350Z 09011KT 050V120 CAVOK 19/10 Q1024 NOSIG

Schedule Frequency

Route Map